createdAt,value
2019-05-14T00:03:11.283Z,15.70
2019-05-14T00:07:22.150Z,19.03
2019-05-14T00:11:31.210Z,14.83
2019-05-14T00:15:41.328Z,14.27
2019-05-14T00:20:02.711Z,13.10
2019-05-14T00:23:58.856Z,13.90
2019-05-14T00:28:06.953Z,15.57
2019-05-14T00:32:14.456Z,14.00
2019-05-14T00:36:22.316Z,13.93
2019-05-14T00:40:31.431Z,15.30
2019-05-14T00:44:51.535Z,16.20
2019-05-14T00:48:48.805Z,16.33
2019-05-14T00:52:57.894Z,15.37
2019-05-14T00:57:05.768Z,13.00
2019-05-14T01:01:13.839Z,13.53
2019-05-14T01:05:22.025Z,14.47
2019-05-14T01:09:31.479Z,14.83
2019-05-14T01:13:38.782Z,14.73
2019-05-14T01:17:46.765Z,17.90
2019-05-14T01:21:54.155Z,16.60
2019-05-14T01:26:02.609Z,19.53
2019-05-14T01:30:12.431Z,20.47
2019-05-14T01:34:21.614Z,16.90
2019-05-14T01:38:31.445Z,17.23
2019-05-14T01:42:38.391Z,18.07
2019-05-14T01:46:45.980Z,18.70
2019-05-14T01:50:53.866Z,18.47
2019-05-14T01:55:02.167Z,16.40
2019-05-14T01:59:12.080Z,17.23
2019-05-14T02:03:21.456Z,15.80
2019-05-14T02:07:28.727Z,14.80
2019-05-14T02:11:37.396Z,16.20
2019-05-14T02:15:45.833Z,15.80
2019-05-14T02:19:54.034Z,13.93
2019-05-14T02:24:02.207Z,13.90
2019-05-14T02:28:11.542Z,12.97
2019-05-14T02:32:21.080Z,13.77
2019-05-14T02:36:30.972Z,14.97
2019-05-14T02:40:40.410Z,14.33
2019-05-14T02:44:49.043Z,14.13
2019-05-14T02:48:59.454Z,13.57
2019-05-14T02:53:06.431Z,15.17
2019-05-14T02:57:14.265Z,14.40
2019-05-14T03:01:22.085Z,14.83
2019-05-14T03:05:30.431Z,18.20
2019-05-14T03:09:40.327Z,16.77
2019-05-14T03:13:49.478Z,16.03
2019-05-14T03:17:59.953Z,13.13
2019-05-14T03:22:10.067Z,13.37
2019-05-14T03:26:19.906Z,14.50
2019-05-14T03:30:32.141Z,14.53
2019-05-14T03:34:42.066Z,14.27
2019-05-14T03:38:46.414Z,14.27
2019-05-14T03:42:54.010Z,14.63
2019-05-14T03:47:05.278Z,15.23
2019-05-14T03:51:11.284Z,16.23
2019-05-14T03:55:20.242Z,16.13
2019-05-14T03:59:29.297Z,15.47
2019-05-14T04:03:39.832Z,14.63
2019-05-14T04:07:50.317Z,15.73
2019-05-14T04:12:00.060Z,15.37
2019-05-14T04:16:09.457Z,14.63
2019-05-14T04:20:19.717Z,17.03
2019-05-14T04:24:29.824Z,17.00
2019-05-14T04:28:39.430Z,19.23
2019-05-14T04:32:50.752Z,20.27
2019-05-14T04:36:59.504Z,19.20
2019-05-14T04:41:10.359Z,18.33
2019-05-14T04:45:19.671Z,17.07
2019-05-14T04:49:29.108Z,20.40
2019-05-14T04:53:39.384Z,14.20
2019-05-14T04:57:49.818Z,13.53
2019-05-14T05:02:00.123Z,12.87
2019-05-14T05:06:09.920Z,15.63
2019-05-14T05:10:19.287Z,16.20
2019-05-14T05:14:26.403Z,17.77
2019-05-14T05:18:34.220Z,15.37
2019-05-14T05:22:41.738Z,15.20
2019-05-14T05:26:49.522Z,13.43
2019-05-14T05:30:58.513Z,13.67
2019-05-14T05:35:09.251Z,14.17
2019-05-14T05:39:16.103Z,13.77
2019-05-14T05:43:23.928Z,13.63
2019-05-14T05:47:31.409Z,14.60
2019-05-14T05:51:39.419Z,12.33
2019-05-14T05:55:48.434Z,11.47
2019-05-14T05:59:58.696Z,13.20
2019-05-14T06:04:08.709Z,12.07
2019-05-14T06:08:18.801Z,13.07
2019-05-14T06:12:26.307Z,12.40
2019-05-14T06:16:34.512Z,10.07
2019-05-14T06:20:42.430Z,10.37
2019-05-14T06:24:50.019Z,11.67
2019-05-14T06:28:59.729Z,13.67
2019-05-14T06:33:09.257Z,9.73
2019-05-14T06:37:18.888Z,11.70
2019-05-14T06:41:28.196Z,10.87
2019-05-14T06:45:35.207Z,9.10
2019-05-14T06:49:43.035Z,9.70
2019-05-14T06:53:50.932Z,8.80
2019-05-14T06:57:58.829Z,7.73
2019-05-14T07:02:08.755Z,6.90
2019-05-14T07:06:18.676Z,7.13
2019-05-14T07:10:28.759Z,7.67
2019-05-14T07:14:36.042Z,7.47
2019-05-14T07:18:49.249Z,7.83
2019-05-14T07:22:54.112Z,7.27
2019-05-14T07:27:01.905Z,7.30
2019-05-14T07:31:10.425Z,7.40
2019-05-14T07:35:18.518Z,6.83
2019-05-14T07:39:28.889Z,7.30
2019-05-14T07:43:35.584Z,6.17
2019-05-14T07:47:43.615Z,6.10
2019-05-14T07:51:51.997Z,6.70
2019-05-14T07:56:00.053Z,6.47
2019-05-14T08:00:08.567Z,6.27
2019-05-14T08:04:19.755Z,6.77
2019-05-14T08:08:25.809Z,6.80
2019-05-14T08:12:33.756Z,7.20
2019-05-14T08:16:41.163Z,8.17
2019-05-14T08:20:49.041Z,10.37
2019-05-14T08:24:58.081Z,9.77
2019-05-14T08:29:06.036Z,8.10
2019-05-14T08:33:15.068Z,8.10
2019-05-14T08:37:22.460Z,8.40
2019-05-14T08:41:30.026Z,7.40
2019-05-14T08:45:38.956Z,7.30
2019-05-14T08:49:50.706Z,7.37
2019-05-14T08:53:59.239Z,7.37
2019-05-14T08:58:13.317Z,7.50
2019-05-14T09:02:16.624Z,7.43
2019-05-14T09:06:24.810Z,7.03
2019-05-14T09:10:32.340Z,8.23
2019-05-14T09:14:40.225Z,6.70
2019-05-14T09:18:49.076Z,7.37
2019-05-14T09:22:59.178Z,9.13
2019-05-14T09:27:08.488Z,8.40
2019-05-14T09:31:16.850Z,8.73
2019-05-14T09:35:25.689Z,8.47
2019-05-14T09:39:33.462Z,9.93
2019-05-14T09:43:41.230Z,8.63
2019-05-14T09:47:50.720Z,9.70
2019-05-14T09:51:58.691Z,11.77
2019-05-14T09:56:09.063Z,12.70
2019-05-14T10:00:19.218Z,13.33
2019-05-14T10:04:26.605Z,12.93
2019-05-14T10:08:34.195Z,14.57
2019-05-14T10:12:52.710Z,11.03
2019-05-14T10:16:51.605Z,10.63
2019-05-14T10:20:59.292Z,11.80
2019-05-14T10:25:09.063Z,8.40
2019-05-14T10:29:18.976Z,9.20
2019-05-14T10:33:28.734Z,9.80
2019-05-14T10:37:39.785Z,9.50
2019-05-14T10:41:46.045Z,9.03
2019-05-14T10:45:54.019Z,10.17
2019-05-14T10:50:02.022Z,9.00
2019-05-14T10:54:20.988Z,8.33
2019-05-14T10:58:20.171Z,9.40
2019-05-14T11:02:29.204Z,10.93
2019-05-14T11:06:38.841Z,10.40
2019-05-14T11:10:49.465Z,10.70
2019-05-14T11:14:56.720Z,12.23
2019-05-14T11:19:04.650Z,9.63
2019-05-14T11:23:12.355Z,9.47
2019-05-14T11:27:20.286Z,10.20
2019-05-14T11:31:29.919Z,11.33
2019-05-14T11:35:39.400Z,9.63
2019-05-14T11:39:48.703Z,10.13
2019-05-14T11:43:59.233Z,9.87
2019-05-14T11:48:06.292Z,12.67
2019-05-14T11:52:14.418Z,10.13
2019-05-14T11:56:22.014Z,10.80
2019-05-14T12:00:30.820Z,9.53
2019-05-14T12:04:39.264Z,10.23
2019-05-14T12:08:46.712Z,9.40
2019-05-14T12:12:54.781Z,10.70
2019-05-14T12:17:02.508Z,10.87
2019-05-14T12:21:12.489Z,12.93
2019-05-14T12:25:20.203Z,11.13
2019-05-14T12:29:29.209Z,9.57
2019-05-14T12:33:39.455Z,8.60
2019-05-14T12:37:46.761Z,7.60
2019-05-14T12:41:54.374Z,7.20
2019-05-14T12:46:03.004Z,8.00
2019-05-14T12:50:11.224Z,8.37
2019-05-14T12:54:19.943Z,8.27
2019-05-14T12:58:28.563Z,8.40
2019-05-14T13:02:36.342Z,8.40
2019-05-14T13:06:44.407Z,7.50
2019-05-14T13:10:52.198Z,7.33
2019-05-14T13:15:01.492Z,7.27
2019-05-14T13:19:09.436Z,7.40
2019-05-14T13:23:18.376Z,9.70
2019-05-14T13:27:28.601Z,9.07
2019-05-14T13:31:35.522Z,7.80
2019-05-14T13:35:43.574Z,7.50
2019-05-14T13:39:53.103Z,8.27
2019-05-14T13:44:17.298Z,8.73
2019-05-14T13:48:10.272Z,8.83
2019-05-14T13:52:18.861Z,7.93
2019-05-14T13:56:28.352Z,9.37
2019-05-14T14:00:36.675Z,11.30
2019-05-14T14:04:44.483Z,9.50
2019-05-14T14:08:52.412Z,9.07
2019-05-14T14:13:00.936Z,7.70
2019-05-14T14:17:08.853Z,12.37
2019-05-14T14:21:19.700Z,8.90
2019-05-14T14:25:29.557Z,7.50
2019-05-14T14:29:39.340Z,10.00
2019-05-14T14:33:48.767Z,8.50
2019-05-14T14:37:59.179Z,8.77
2019-05-14T14:42:06.244Z,7.50
2019-05-14T14:46:14.518Z,8.83
2019-05-14T14:50:22.321Z,8.50
2019-05-14T14:54:29.801Z,7.80
2019-05-14T14:58:39.158Z,10.70
2019-05-14T15:02:49.552Z,7.63
2019-05-14T15:06:59.574Z,8.50
2019-05-14T15:11:08.574Z,8.40
2019-05-14T15:15:18.478Z,9.47
2019-05-14T15:19:25.149Z,8.00
2019-05-14T15:23:33.191Z,8.00
2019-05-14T15:27:40.679Z,8.20
2019-05-14T15:31:48.985Z,9.87
2019-05-14T15:35:58.237Z,8.40
2019-05-14T15:40:07.800Z,10.03
2019-05-14T15:44:15.675Z,9.03
2019-05-14T15:48:23.069Z,10.93
2019-05-14T15:52:31.146Z,9.53
2019-05-14T15:56:39.561Z,11.87
2019-05-14T16:00:48.375Z,14.13
2019-05-14T16:04:59.000Z,9.30
2019-05-14T16:09:06.859Z,11.50
2019-05-14T16:13:14.763Z,12.60
2019-05-14T16:17:24.653Z,20.20
2019-05-14T16:21:31.971Z,9.10
2019-05-14T16:25:40.235Z,9.90
2019-05-14T16:29:48.265Z,9.60
2019-05-14T16:33:56.020Z,9.73
2019-05-14T16:38:04.599Z,8.57
2019-05-14T16:42:12.309Z,10.47
2019-05-14T16:46:20.213Z,9.77
2019-05-14T16:50:28.642Z,12.40
2019-05-14T16:54:39.255Z,9.40
2019-05-14T16:58:46.540Z,8.73
2019-05-14T17:02:54.190Z,8.83
2019-05-14T17:07:01.702Z,9.60
2019-05-14T17:11:09.695Z,10.00
2019-05-14T17:15:18.171Z,9.80
2019-05-14T17:19:25.910Z,9.20
2019-05-14T17:23:34.417Z,9.00
2019-05-14T17:27:42.204Z,8.07
2019-05-14T17:31:49.783Z,9.40
2019-05-14T17:35:58.636Z,8.63
2019-05-14T17:40:09.336Z,8.97
2019-05-14T17:44:17.548Z,11.93
2019-05-14T17:48:25.454Z,9.00
2019-05-14T17:52:33.475Z,9.53
2019-05-14T17:56:41.167Z,9.50
2019-05-14T18:00:49.063Z,9.30
2019-05-14T18:04:59.292Z,9.13
2019-05-14T18:09:09.138Z,8.30
2019-05-14T18:13:18.189Z,8.97
2019-05-14T18:17:26.192Z,8.90
2019-05-14T18:21:33.877Z,8.80
2019-05-14T18:25:41.870Z,9.03
2019-05-14T18:29:50.690Z,9.77
2019-05-14T18:33:58.914Z,8.57
2019-05-14T18:38:08.286Z,9.43
2019-05-14T18:42:15.979Z,9.50
2019-05-14T18:46:23.951Z,11.47
2019-05-14T18:50:31.359Z,17.67
2019-05-14T18:54:39.085Z,12.27
2019-05-14T18:58:48.599Z,11.50
2019-05-14T19:02:55.990Z,12.43
2019-05-14T19:07:04.046Z,11.50
2019-05-14T19:11:11.543Z,12.07
2019-05-14T19:15:19.348Z,21.27
2019-05-14T19:19:29.210Z,10.73
2019-05-14T19:23:38.256Z,10.40
2019-05-14T19:27:45.596Z,12.97
2019-05-14T19:31:53.084Z,10.93
2019-05-14T19:36:01.082Z,11.07
2019-05-14T19:40:09.594Z,10.63
2019-05-14T19:44:19.151Z,12.50
2019-05-14T19:48:32.089Z,11.30
2019-05-14T19:52:39.001Z,11.33
2019-05-14T19:56:55.617Z,11.47
2019-05-14T20:00:56.254Z,10.90
2019-05-14T20:05:05.562Z,10.00
2019-05-14T20:09:15.263Z,10.63
2019-05-14T20:13:23.074Z,10.47
2019-05-14T20:17:30.985Z,10.03
2019-05-14T20:21:39.230Z,9.97
2019-05-14T20:25:48.149Z,10.77
2019-05-14T20:29:57.978Z,9.90
2019-05-14T20:34:05.728Z,9.20
2019-05-14T20:38:14.253Z,10.67
2019-05-14T20:42:25.979Z,10.60
2019-05-14T20:46:35.458Z,11.10
2019-05-14T20:50:44.380Z,11.23
2019-05-14T20:54:54.188Z,11.83
2019-05-14T20:59:02.098Z,11.37
2019-05-14T21:03:09.864Z,10.43
2019-05-14T21:07:17.628Z,10.17
2019-05-14T21:11:25.720Z,11.73
2019-05-14T21:15:33.341Z,12.23
2019-05-14T21:19:41.873Z,11.70
2019-05-14T21:23:49.567Z,10.27
2019-05-14T21:27:58.764Z,11.30
2019-05-14T21:32:08.219Z,10.83
2019-05-14T21:36:19.489Z,11.17
2019-05-14T21:40:31.984Z,10.90
2019-05-14T21:44:39.191Z,9.93
2019-05-14T21:48:47.802Z,10.10
2019-05-14T21:52:59.442Z,9.13
2019-05-14T21:57:11.317Z,8.93
2019-05-14T22:01:18.747Z,9.00
2019-05-14T22:05:28.531Z,9.07
2019-05-14T22:09:38.984Z,8.60
2019-05-14T22:13:46.632Z,7.57
2019-05-14T22:17:54.753Z,8.43
2019-05-14T22:22:02.457Z,8.57
2019-05-14T22:26:10.779Z,9.33
2019-05-14T22:30:19.130Z,9.83
2019-05-14T22:34:28.034Z,8.60
2019-05-14T22:38:38.719Z,8.40
2019-05-14T22:42:46.242Z,9.60
2019-05-14T22:46:53.841Z,8.47
2019-05-14T22:51:02.058Z,9.00
2019-05-14T22:55:09.848Z,9.50
2019-05-14T22:59:20.343Z,9.03
2019-05-14T23:03:29.013Z,8.07
2019-05-14T23:07:38.295Z,8.90
2019-05-14T23:11:47.997Z,8.43
2019-05-14T23:15:55.987Z,9.10
2019-05-14T23:20:03.772Z,8.70
2019-05-14T23:24:11.994Z,8.90
2019-05-14T23:28:19.807Z,8.77
2019-05-14T23:32:28.612Z,9.13
2019-05-14T23:36:38.788Z,7.83
2019-05-14T23:40:46.317Z,8.87
2019-05-14T23:44:54.754Z,8.77
2019-05-14T23:49:03.071Z,9.57
2019-05-14T23:53:10.752Z,9.43
2019-05-14T23:57:19.275Z,8.57
